Time;durP1;ratioP1;P1;durP2;ratioP2;P2;SDS_P1;SDS_P2;PMS_P1;PMS_P2;Temp;Humidity;BMP_temperature;BMP_pressure;BME280_temperature;BME280_humidity;BME280_pressure;Samples;Min_cycle;Max_cycle;Signal;HPM_P1;HPM_P2
2022/05/21 00:02:11;;;;;;;4.53;2.30;;;;;;;10.72;77.19;100489.53;10373181;28;20038;-71
2022/05/21 00:07:13;;;;;;;3.78;2.38;;;;;;;10.77;77.47;100509.44;10372297;28;20037;-71
2022/05/21 00:12:14;;;;;;;4.20;2.33;;;;;;;10.65;77.50;100493.00;10372572;28;20432;-71
2022/05/21 00:17:15;;;;;;;5.45;2.20;;;;;;;9.63;77.67;100329.53;10371467;28;20153;-71
2022/05/21 00:22:16;;;;;;;5.07;2.72;;;;;;;10.64;77.62;100494.00;10372145;28;20041;-71
2022/05/21 00:27:16;;;;;;;4.30;2.58;;;;;;;9.63;77.47;100338.31;10371650;28;20050;-70
2022/05/21 00:32:18;;;;;;;3.60;2.35;;;;;;;9.91;77.74;100380.53;10372082;28;20406;-71
2022/05/21 00:37:19;;;;;;;4.75;2.60;;;;;;;10.61;77.48;100504.94;10371519;28;20096;-71
2022/05/21 00:42:20;;;;;;;5.60;2.70;;;;;;;10.57;77.72;100479.72;10372085;28;20068;-70
2022/05/21 00:47:21;;;;;;;6.43;2.47;;;;;;;10.48;77.92;100485.03;10371932;28;20081;-70
2022/05/21 00:52:27;;;;;;;10.75;2.67;;;;;;;10.43;78.26;100486.50;10378458;28;20046;-70
2022/05/21 00:57:40;;;;;;;8.77;2.80;;;;;;;10.33;78.83;100485.81;10379566;28;20042;-70
2022/05/21 01:02:54;;;;;;;13.20;3.28;;;;;;;9.11;79.59;100325.22;10378778;28;20112;-70
2022/05/21 01:07:58;;;;;;;16.02;3.17;;;;;;;10.07;79.57;100503.47;10378147;28;20046;-70
2022/05/21 01:12:58;;;;;;;9.77;2.70;;;;;;;9.03;79.18;100326.00;10379527;28;20054;-71
2022/05/21 01:17:59;;;;;;;39.42;4.47;;;;;;;9.99;79.46;100479.56;10361323;28;20140;-70
2022/05/21 01:23:00;;;;;;;16.05;3.83;;;;;;;9.71;80.01;100449.75;10377819;28;20041;-71
2022/05/21 01:28:03;;;;;;;5.30;2.42;;;;;;;10.04;80.64;100503.78;10378656;28;20666;-70
2022/05/21 01:33:07;;;;;;;4.55;2.10;;;;;;;9.84;80.23;100489.09;10378113;28;20080;-70
2022/05/21 01:38:12;;;;;;;6.43;2.33;;;;;;;8.22;80.96;100217.78;10378405;28;20524;-70
2022/05/21 01:48:33;;;;;;;9.05;2.80;;;;;;;9.78;80.98;100482.66;10377724;28;20121;-70
2022/05/21 01:53:36;;;;;;;9.10;2.65;;;;;;;9.72;80.56;100471.81;10376707;28;20108;-71
2022/05/21 01:58:37;;;;;;;11.50;2.85;;;;;;;10.02;80.63;100495.19;10384385;28;20052;-70
2022/05/21 02:03:38;;;;;;;4.72;2.65;;;;;;;10.10;80.58;100501.50;10399264;28;20120;-71
2022/05/21 02:08:39;;;;;;;5.97;2.60;;;;;;;10.05;81.04;100489.53;10417379;28;20463;-71
2022/05/21 02:13:40;;;;;;;15.98;3.30;;;;;;;9.00;81.14;100299.81;10417957;28;20175;-70
2022/05/21 02:18:41;;;;;;;5.35;3.00;;;;;;;10.32;81.43;100537.25;10416894;28;20060;-71
2022/05/21 02:23:42;;;;;;;5.95;2.28;;;;;;;10.28;81.30;100516.34;10416417;28;20060;-70
2022/05/21 02:28:43;;;;;;;12.05;2.85;;;;;;;10.09;81.42;100483.91;10417085;28;20045;-70
2022/05/21 02:33:44;;;;;;;4.57;2.00;;;;;;;10.44;80.70;100523.53;10416789;28;20049;-70
2022/05/21 02:44:04;;;;;;;4.15;1.75;;;;;;;10.55;76.93;100351.53;10416156;28;20045;-71
2022/05/21 02:49:05;;;;;;;6.80;2.05;;;;;;;11.70;76.00;100474.44;10415893;28;20049;-71
2022/05/21 02:54:06;;;;;;;6.38;1.63;;;;;;;10.94;74.93;100317.09;10415330;28;20041;-71
2022/05/21 02:59:07;;;;;;;3.40;1.63;;;;;;;12.04;74.50;100471.47;10420505;28;20032;-70
2022/05/21 03:04:08;;;;;;;2.25;1.35;;;;;;;11.48;73.58;100338.47;10417503;28;20428;-71
2022/05/21 03:14:28;;;;;;;5.60;1.70;;;;;;;12.33;72.11;100385.56;10411235;28;20420;-70
2022/05/21 03:19:31;;;;;;;3.38;1.40;;;;;;;13.17;71.55;100484.97;10414358;28;20057;-72
2022/05/21 03:24:32;;;;;;;3.72;1.60;;;;;;;13.48;69.94;100478.66;10414046;28;20085;-72
2022/05/21 03:29:32;;;;;;;5.03;1.38;;;;;;;12.85;69.34;100318.13;10414480;28;20130;-72
2022/05/21 03:34:36;;;;;;;6.72;1.77;;;;;;;13.42;68.77;100368.16;10414794;28;20038;-72
2022/05/21 03:39:36;;;;;;;2.72;1.38;;;;;;;15.86;64.67;100491.91;10413425;28;20083;-72
2022/05/21 03:44:37;;;;;;;3.58;1.33;;;;;;;17.30;60.95;100473.59;10415327;28;20103;-73
2022/05/21 03:49:39;;;;;;;4.95;1.98;;;;;;;17.45;59.88;100507.44;10411362;28;20412;-71
2022/05/21 03:54:40;;;;;;;3.80;1.67;;;;;;;17.01;58.61;100354.09;10412381;28;20033;-72
2022/05/21 03:59:43;;;;;;;9.23;1.65;;;;;;;18.51;56.10;100500.88;10410891;28;20497;-72
2022/05/21 04:04:43;;;;;;;3.42;1.75;;;;;;;19.55;53.80;100500.25;10408911;28;20049;-72
2022/05/21 04:09:44;;;;;;;3.17;1.50;;;;;;;17.98;53.66;100303.91;10414386;28;20048;-72
2022/05/21 04:14:45;;;;;;;3.38;1.20;;;;;;;20.20;50.89;100466.56;10423021;28;20044;-73
2022/05/21 04:19:46;;;;;;;10.23;1.40;;;;;;;21.16;47.88;100494.38;10453603;28;20084;-73
2022/05/21 04:24:46;;;;;;;2.88;1.33;;;;;;;20.93;47.97;100501.38;10439707;28;20094;-72
2022/05/21 04:29:47;;;;;;;2.30;1.40;;;;;;;20.90;46.96;100485.66;10462703;28;20552;-73
2022/05/21 04:34:48;;;;;;;5.55;1.25;;;;;;;20.48;47.14;100507.22;10463390;28;20037;-73
2022/05/21 04:39:49;;;;;;;4.50;1.40;;;;;;;19.74;48.36;100497.59;10462241;28;20407;-71
2022/05/21 04:44:49;;;;;;;4.03;1.55;;;;;;;19.93;47.88;100499.25;10443550;28;20037;-72
2022/05/21 04:49:50;;;;;;;3.95;1.40;;;;;;;19.38;47.34;100376.09;10462171;28;20049;-72
2022/05/21 04:54:51;;;;;;;2.65;1.25;;;;;;;20.30;46.57;100491.09;10461573;28;20503;-76
2022/05/21 04:59:53;;;;;;;4.38;1.20;;;;;;;20.57;45.64;100491.56;10461018;28;20037;-73
2022/05/21 05:04:53;;;;;;;2.90;1.25;;;;;;;18.90;47.05;100297.91;10461362;28;20059;-71
2022/05/21 05:09:54;;;;;;;5.72;1.60;;;;;;;19.43;47.33;100488.56;10461049;28;20040;-71
2022/05/21 05:14:55;;;;;;;4.75;1.48;;;;;;;18.30;48.28;100360.31;10460614;28;20480;-71
2022/05/21 05:19:56;;;;;;;3.83;1.38;;;;;;;18.95;48.04;100497.28;10377692;28;20058;-72
2022/05/21 05:24:57;;;;;;;8.70;1.98;;;;;;;19.25;48.59;100504.69;10377946;28;20046;-73
2022/05/21 05:30:00;;;;;;;3.33;1.42;;;;;;;19.22;48.14;100492.50;10377534;28;20050;-73
2022/05/21 05:35:01;;;;;;;2.90;1.40;;;;;;;18.15;47.90;100346.38;10377328;28;20076;-72
2022/05/21 05:40:04;;;;;;;7.22;1.65;;;;;;;17.22;48.30;100216.09;10377684;28;20319;-73
2022/05/21 05:45:06;;;;;;;6.25;1.48;;;;;;;18.83;48.32;100512.50;10368798;28;20045;-74
2022/05/21 05:50:09;;;;;;;2.10;1.20;;;;;;;17.83;48.60;100332.09;10392573;28;20053;-71
2022/05/21 05:55:09;;;;;;;3.47;1.45;;;;;;;18.88;48.06;100475.00;10417653;28;20047;-72
2022/05/21 06:00:11;;;;;;;5.07;1.42;;;;;;;18.82;47.92;100438.19;10400138;28;20156;-70
2022/05/21 06:05:18;;;;;;;3.05;1.40;;;;;;;19.01;47.32;100447.13;10417495;28;20080;-71
2022/05/21 06:10:29;;;;;;;4.18;1.30;;;;;;;19.28;47.31;100455.78;10417193;28;20124;-76
2022/05/21 06:15:31;;;;;;;8.27;1.90;;;;;;;19.00;46.53;100387.06;10418526;28;20045;-70
2022/05/21 06:20:32;;;;;;;3.35;1.50;;;;;;;19.66;46.68;100454.78;10420832;28;20459;-74
2022/05/21 06:25:36;;;;;;;3.42;1.35;;;;;;;19.38;45.83;100324.06;10417360;28;20508;-72
2022/05/21 06:30:38;;;;;;;4.47;1.50;;;;;;;20.35;44.82;100423.78;10415825;28;20045;-74
2022/05/21 06:35:40;;;;;;;3.58;1.58;;;;;;;19.99;44.38;100263.75;10417340;28;20496;-72
2022/05/21 06:40:40;;;;;;;3.38;1.35;;;;;;;21.74;44.00;100438.63;10416479;28;20068;-74
2022/05/21 06:45:41;;;;;;;5.95;1.85;;;;;;;21.61;42.56;100326.19;10416063;28;20069;-74
2022/05/21 06:50:42;;;;;;;8.57;1.75;;;;;;;21.72;42.11;100290.19;10414516;28;20523;-73
2022/05/21 06:55:43;;;;;;;4.03;1.48;;;;;;;22.67;40.23;100409.50;10416079;28;20045;-74
2022/05/21 07:00:44;;;;;;;8.07;1.52;;;;;;;22.78;39.91;100416.75;10415710;28;20094;-71
2022/05/21 07:11:04;;;;;;;7.25;1.80;;;;;;;22.32;39.39;100397.84;10415065;28;20041;-73
2022/05/21 07:16:04;;;;;;;11.30;1.90;;;;;;;22.47;39.68;100396.47;10415039;28;20112;-72
2022/05/21 07:21:10;;;;;;;3.15;1.63;;;;;;;22.49;39.61;100375.38;10414389;28;20077;-71
2022/05/21 07:26:12;;;;;;;4.93;1.23;;;;;;;22.16;40.62;100279.56;10414807;28;20037;-72
2022/05/21 07:31:13;;;;;;;5.65;1.60;;;;;;;23.18;39.31;100392.19;10414308;28;20045;-75
2022/05/21 07:36:14;;;;;;;10.85;1.80;;;;;;;22.93;39.76;100389.88;10414378;28;20037;-73
2022/05/21 07:41:15;;;;;;;5.15;1.50;;;;;;;22.25;39.94;100261.88;10414310;28;20095;-71
2022/05/21 07:46:15;;;;;;;13.30;1.50;;;;;;;23.24;39.80;100385.75;10415208;28;20171;-76
2022/05/21 07:51:16;;;;;;;3.20;1.45;;;;;;;23.33;38.64;100385.28;10413768;28;20041;-77
2022/05/21 07:56:17;;;;;;;6.22;1.75;;;;;;;22.73;39.07;100355.19;10413126;28;20116;-77
2022/05/21 08:01:18;;;;;;;5.47;1.33;;;;;;;22.95;39.08;100395.91;10413210;28;20038;-76
2022/05/21 08:06:19;;;;;;;3.58;1.55;;;;;;;23.12;39.41;100387.72;10413713;28;20037;-74
2022/05/21 08:11:20;;;;;;;3.38;1.38;;;;;;;23.09;38.77;100390.94;10413676;28;20084;-72
2022/05/21 08:16:22;;;;;;;2.90;1.45;;;;;;;22.94;38.63;100388.84;10412890;28;20515;-72
2022/05/21 08:21:24;;;;;;;2.70;1.25;;;;;;;22.62;38.78;100380.47;10413537;28;20455;-77
2022/05/21 08:31:45;;;;;;;3.47;1.23;;;;;;;22.50;39.53;100417.66;10413122;28;20052;-74
2022/05/21 08:36:45;;;;;;;4.53;1.30;;;;;;;21.59;39.92;100269.66;10413027;28;20041;-79
2022/05/21 08:41:53;;;;;;;6.25;1.30;;;;;;;22.28;40.13;100404.00;10412169;28;20045;-72
2022/05/21 08:47:02;;;;;;;3.85;1.35;;;;;;;22.43;39.64;100406.13;10411899;28;20041;-75
2022/05/21 08:52:18;;;;;;;5.68;1.70;;;;;;;22.32;39.61;100403.28;10412682;28;20045;-73
2022/05/21 08:57:31;;;;;;;5.40;1.60;;;;;;;21.87;40.21;100384.28;10411995;28;20037;-72
2022/05/21 09:02:34;;;;;;;3.15;1.50;;;;;;;21.92;40.53;100411.41;10411791;28;20037;-74
2022/05/21 09:07:50;;;;;;;3.20;1.33;;;;;;;21.81;41.21;100407.72;10411717;28;20045;-75
2022/05/21 09:13:01;;;;;;;2.75;1.27;;;;;;;20.02;41.26;100158.13;10416937;28;20125;-78
2022/05/21 09:18:03;;;;;;;4.82;1.20;;;;;;;21.05;41.48;100376.34;10418798;28;20584;-73
2022/05/21 09:23:03;;;;;;;4.05;1.50;;;;;;;20.21;42.08;100276.69;10419130;28;20068;-75
2022/05/21 09:28:07;;;;;;;10.23;1.88;;;;;;;20.17;42.45;100281.72;10418765;28;20107;-71
2022/05/21 09:33:27;;;;;;;5.13;1.45;;;;;;;21.13;42.17;100411.09;10418646;28;20043;-72
2022/05/21 09:38:33;;;;;;;6.40;1.60;;;;;;;21.31;42.54;100423.66;10419006;28;20037;-73
2022/05/21 09:49:23;;;;;;;3.15;1.20;;;;;;;21.66;42.91;100420.94;10418472;28;20045;-72
2022/05/21 09:54:32;;;;;;;4.78;1.50;;;;;;;22.06;42.26;100407.38;10418273;28;20102;-73
2022/05/21 09:59:33;;;;;;;4.38;1.30;;;;;;;22.27;40.88;100408.59;10418178;28;20051;-75
2022/05/21 10:04:53;;;;;;;3.65;1.40;;;;;;;22.31;40.44;100417.03;10400414;28;20037;-73
2022/05/21 10:15:24;;;;;;;2.85;1.25;;;;;;;22.47;38.49;100377.53;10382338;28;20518;-72
2022/05/21 10:20:44;;;;;;;4.95;1.35;;;;;;;22.80;37.59;100406.50;10375432;28;20085;-73
2022/05/21 10:25:51;;;;;;;4.97;1.45;;;;;;;22.14;37.54;100286.28;10376254;28;20045;-75
2022/05/21 10:30:51;;;;;;;2.78;1.30;;;;;;;22.97;38.33;100410.03;10375210;28;20037;-73
2022/05/21 10:36:14;;;;;;;5.88;1.30;;;;;;;23.53;38.19;100390.97;10376175;28;20061;-73
2022/05/21 10:41:51;;;;;;;4.63;1.60;;;;;;;23.91;38.08;100392.00;10375127;28;20076;-72
2022/05/21 10:47:03;;;;;;;3.92;1.10;;;;;;;23.52;38.05;100375.78;10375420;28;20042;-73
2022/05/21 10:52:24;;;;;;;2.67;1.30;;;;;;;23.10;38.73;100351.97;10374607;28;20038;-74
2022/05/21 10:58:04;;;;;;;8.05;1.48;;;;;;;23.22;38.37;100370.81;10374978;28;20401;-74
2022/05/21 11:03:43;;;;;;;3.70;1.30;;;;;;;22.13;38.88;100217.81;10375059;28;20034;-75
2022/05/21 11:08:58;;;;;;;2.50;1.20;;;;;;;21.50;38.77;100100.03;10169957;29;20469;-79
2022/05/21 11:14:11;;;;;;;3.53;1.33;;;;;;;23.27;38.55;100365.44;10337962;28;20053;-71
2022/05/21 11:19:21;;;;;;;3.75;1.27;;;;;;;23.33;38.50;100321.06;10373807;28;20085;-75
2022/05/21 11:24:51;;;;;;;5.00;1.75;;;;;;;23.46;38.00;100347.00;10373597;28;20042;-72
2022/05/21 11:30:04;;;;;;;5.40;2.22;;;;;;;23.70;38.71;100342.13;10373147;28;20586;-72
2022/05/21 11:46:34;;;;;;;4.00;1.50;;;;;;;23.86;37.56;100314.06;10372893;28;20041;-71
2022/05/21 11:51:36;;;;;;;2.78;1.33;;;;;;;24.08;38.13;100314.03;10373028;28;20520;-71
2022/05/21 11:57:34;;;;;;;5.53;1.23;;;;;;;24.17;37.95;100310.81;10372336;28;20038;-74
2022/05/21 12:02:59;;;;;;;3.72;1.35;;;;;;;23.66;38.17;100213.50;10187114;29;20515;-72
2022/05/21 12:08:15;;;;;;;4.25;1.45;;;;;;;24.11;37.62;100299.09;10349950;28;20060;-73
2022/05/21 12:13:16;;;;;;;5.15;1.42;;;;;;;23.95;39.51;100292.72;10371362;28;20108;-73
2022/05/21 12:18:41;;;;;;;7.55;1.50;;;;;;;24.07;39.07;100282.50;10424244;28;20795;-71
2022/05/21 12:23:43;;;;;;;7.47;1.77;;;;;;;24.01;39.56;100278.13;10385030;28;20057;-73
2022/05/21 12:28:51;;;;;;;2.75;1.63;;;;;;;23.29;39.11;100156.50;10372119;28;20045;-72
2022/05/21 12:34:07;;;;;;;2.47;1.45;;;;;;;24.11;38.03;100271.97;10371510;28;20042;-71
2022/05/21 12:39:14;;;;;;;2.95;1.30;;;;;;;23.46;38.50;100155.31;10371956;28;20413;-72
2022/05/21 12:44:39;;;;;;;2.20;1.10;;;;;;;24.07;38.22;100244.53;10355871;28;20030;-71
2022/05/21 12:49:49;;;;;;;5.13;3.00;;;;;;;24.49;37.45;100246.47;10379914;28;20048;-71
2022/05/21 12:54:50;;;;;;;7.18;1.75;;;;;;;24.57;36.78;100218.81;10379290;28;20038;-72
2022/05/21 13:00:04;;;;;;;5.10;1.20;;;;;;;24.90;36.57;100251.31;10388797;28;20471;-72
2022/05/21 13:05:05;;;;;;;6.97;1.50;;;;;;;23.77;36.17;100076.94;10362480;28;20049;-83
2022/05/21 13:10:16;;;;;;;2.75;1.17;;;;;;;25.01;35.34;100237.50;10361299;28;20050;-71
2022/05/21 13:15:25;;;;;;;4.15;1.10;;;;;;;24.89;35.50;100207.03;10378028;28;20068;-73
2022/05/21 13:20:35;;;;;;;6.55;2.63;;;;;;;24.93;35.55;100240.72;10377984;28;20064;-73
2022/05/21 13:25:36;;;;;;;4.15;1.73;;;;;;;24.74;36.15;100237.66;10380604;28;20034;-73
2022/05/21 13:30:41;;;;;;;4.35;1.30;;;;;;;24.51;36.07;100228.03;10405189;28;20042;-71
2022/05/21 13:35:44;;;;;;;2.50;1.00;;;;;;;24.55;36.38;100212.81;10419373;28;20460;-73
2022/05/21 13:40:50;;;;;;;;;;;;;;;25.06;36.43;100221.19;10419563;28;20041;-79
2022/05/21 13:45:59;;;;;;;3.28;1.40;;;;;;;24.62;36.43;100203.63;10418048;28;20416;-75
2022/05/21 13:51:01;;;;;;;6.43;1.60;;;;;;;24.74;37.10;100215.09;10419778;28;20049;-74
2022/05/21 13:56:04;;;;;;;1.73;1.10;;;;;;;24.75;36.30;100208.59;10436283;28;20042;-74
2022/05/21 14:01:22;;;;;;;21.77;2.40;;;;;;;24.87;37.31;100197.50;10433181;28;20033;-75
2022/05/21 14:06:23;;;;;;;4.72;1.23;;;;;;;24.48;36.80;100181.56;10450307;28;20041;-72
2022/05/21 14:11:27;;;;;;;3.35;1.55;;;;;;;24.35;37.32;100201.81;10417838;28;20037;-74
2022/05/21 14:16:32;;;;;;;2.65;1.20;;;;;;;24.34;37.28;100190.16;10417273;28;20041;-75
2022/05/21 14:21:37;;;;;;;2.92;1.08;;;;;;;23.74;37.62;100065.78;10416808;28;20206;-72
2022/05/21 14:26:38;;;;;;;5.22;1.20;;;;;;;24.64;37.81;100182.47;10395509;28;20042;-73
2022/05/21 14:31:40;;;;;;;2.85;1.08;;;;;;;24.29;37.12;100145.88;10411268;28;20041;-74
2022/05/21 14:36:44;;;;;;;3.13;1.10;;;;;;;24.28;37.56;100185.78;10448733;28;20206;-72
2022/05/21 14:41:48;;;;;;;3.50;1.40;;;;;;;24.35;37.99;100171.94;10416079;28;20045;-75
2022/05/21 14:57:31;;;;;;;8.93;1.40;;;;;;;23.31;39.30;100160.59;10456420;28;20133;-75
2022/05/21 15:02:32;;;;;;;4.13;1.23;;;;;;;22.17;38.73;100010.69;10425031;28;20091;-73
2022/05/21 15:07:35;;;;;;;3.22;1.17;;;;;;;22.79;39.16;100140.25;10374178;28;20631;-75
2022/05/21 15:12:36;;;;;;;5.00;1.27;;;;;;;22.66;39.71;100142.53;10357159;28;20037;-75
2022/05/21 15:17:37;;;;;;;5.68;1.08;;;;;;;22.04;40.12;100065.13;10374021;28;20061;-74
2022/05/21 15:22:39;;;;;;;3.65;1.20;;;;;;;22.38;40.82;100122.72;10374728;28;20052;-75
2022/05/21 15:27:40;;;;;;;26.73;1.50;;;;;;;22.36;40.83;100114.00;10374453;28;20038;-75
2022/05/21 15:32:41;;;;;;;11.35;1.63;;;;;;;22.60;40.98;100116.47;10374491;28;20511;-74
2022/05/21 15:37:43;;;;;;;2.60;0.95;;;;;;;22.66;41.26;100110.84;10373715;28;20041;-78
2022/05/21 15:42:47;;;;;;;27.67;2.40;;;;;;;21.68;42.57;99980.84;10395987;28;20050;-74
2022/05/21 15:47:47;;;;;;;;;;;;;;;22.47;42.68;100112.25;10395408;28;20056;-72
2022/05/21 15:52:48;;;;;;;4.45;1.40;;;;;;;21.54;43.94;100061.47;10406035;28;19921;-74
2022/05/21 15:57:49;;;;;;;10.30;1.80;;;;;;;21.43;45.14;100086.69;10382339;28;20045;-72
2022/05/21 16:02:50;;;;;;;6.40;1.67;;;;;;;21.31;45.85;100102.13;10389007;28;20198;-73
2022/05/21 16:07:51;;;;;;;38.38;3.08;;;;;;;21.10;47.22;100112.59;10383570;28;20054;-73
2022/05/21 16:12:53;;;;;;;10.40;1.80;;;;;;;20.86;47.95;100102.97;10372183;28;20562;-72
2022/05/21 16:17:54;;;;;;;71.55;4.47;;;;;;;20.52;49.33;100087.50;10372922;28;20053;-72
2022/05/21 16:22:55;;;;;;;17.65;2.80;;;;;;;19.84;49.17;99999.22;10371322;28;20350;-73
2022/05/21 16:27:56;;;;;;;10.40;2.00;;;;;;;20.35;49.59;100118.13;10371512;28;20049;-74
2022/05/21 16:32:57;;;;;;;26.25;2.80;;;;;;;20.16;50.77;100107.47;10371941;28;20416;-72
2022/05/21 16:37:58;;;;;;;53.20;5.10;;;;;;;19.74;52.34;100077.13;10382675;28;20041;-74
2022/05/21 16:42:58;;;;;;;24.52;3.42;;;;;;;19.67;53.59;100095.31;10379041;28;20617;-72
2022/05/21 16:47:59;;;;;;;41.75;4.97;;;;;;;19.42;53.79;100077.47;10383240;28;20056;-72
2022/05/21 16:53:00;;;;;;;23.75;2.92;;;;;;;19.28;55.09;100090.31;10375608;28;20050;-73
2022/05/21 16:58:02;;;;;;;8.30;2.10;;;;;;;19.09;55.25;100092.25;10375754;28;20041;-73
2022/05/21 17:03:03;;;;;;;14.23;4.10;;;;;;;18.83;55.30;100089.94;10426393;28;20080;-73
2022/05/21 17:08:04;;;;;;;9.63;2.92;;;;;;;18.52;56.83;100117.84;10421318;28;20072;-73
2022/05/21 17:13:06;;;;;;;8.25;2.63;;;;;;;18.11;56.97;100081.72;10411750;28;20076;-72
2022/05/21 17:18:07;;;;;;;8.98;3.38;;;;;;;17.17;57.51;99963.63;10412404;28;20061;-72
2022/05/21 17:23:08;;;;;;;7.78;3.47;;;;;;;17.69;57.67;100071.56;10412298;28;20421;-72
2022/05/21 17:33:28;;;;;;;6.88;3.00;;;;;;;17.55;58.32;100099.56;10416538;28;20448;-72
2022/05/21 17:38:29;;;;;;;12.15;3.72;;;;;;;17.39;58.98;100105.50;10418529;28;20493;-74
2022/05/21 17:43:33;;;;;;;6.82;2.97;;;;;;;16.32;59.47;99971.19;10418321;28;20103;-72
2022/05/21 17:48:35;;;;;;;5.00;2.72;;;;;;;17.01;59.84;100096.47;10401004;28;20136;-72
2022/05/21 17:53:37;;;;;;;4.38;2.55;;;;;;;16.42;60.26;100042.09;10418677;28;20523;-72
2022/05/21 17:58:38;;;;;;;5.60;2.65;;;;;;;16.40;60.83;100057.56;10417824;28;20481;-72
2022/05/21 18:03:39;;;;;;;9.20;2.30;;;;;;;14.91;61.12;99821.97;10417463;28;20128;-72
2022/05/21 18:08:40;;;;;;;8.00;2.97;;;;;;;16.56;61.13;100091.09;10400077;28;20132;-71
2022/05/21 18:13:41;;;;;;;8.88;3.50;;;;;;;16.50;61.00;100083.09;10397868;28;20557;-72
2022/05/21 18:24:02;;;;;;;5.50;3.60;;;;;;;16.43;60.60;100056.31;10417220;28;20049;-72
2022/05/21 18:29:03;;;;;;;11.50;4.13;;;;;;;16.47;60.90;100064.75;10416879;28;20048;-72
2022/05/21 18:34:05;;;;;;;10.18;4.57;;;;;;;16.35;61.94;100092.22;10416992;28;20040;-72
2022/05/21 18:39:06;;;;;;;14.55;4.57;;;;;;;16.16;62.04;100082.41;10416879;28;20512;-72
2022/05/21 18:44:08;;;;;;;18.02;5.75;;;;;;;15.77;62.89;100032.44;10417336;28;20079;-72
2022/05/21 18:49:10;;;;;;;9.18;5.13;;;;;;;15.77;63.55;100053.84;10389814;28;20037;-72
2022/05/21 18:54:12;;;;;;;13.95;5.38;;;;;;;15.67;64.20;100091.72;10419721;28;20178;-73
2022/05/21 18:59:14;;;;;;;15.20;6.38;;;;;;;15.10;64.32;99980.78;10420095;28;20050;-74
2022/05/21 19:04:14;;;;;;;10.30;6.45;;;;;;;15.60;64.54;100061.47;10375423;28;20405;-74
2022/05/21 19:09:15;;;;;;;14.05;6.95;;;;;;;15.57;64.16;100092.16;10374812;28;20046;-74
2022/05/21 19:14:17;;;;;;;23.30;8.43;;;;;;;14.78;64.80;99952.00;10375047;28;20044;-73
2022/05/21 19:19:22;;;;;;;15.75;7.75;;;;;;;14.87;65.58;100006.09;10374745;28;20058;-73
2022/05/21 19:24:25;;;;;;;17.08;7.97;;;;;;;14.66;66.99;100015.13;10355814;28;20138;-73
2022/05/21 19:29:28;;;;;;;20.30;7.40;;;;;;;14.72;67.53;100034.88;10395671;28;20037;-73
2022/05/21 19:34:30;;;;;;;12.48;6.80;;;;;;;14.54;67.21;100054.16;10409488;28;20045;-73
2022/05/21 19:44:52;;;;;;;13.57;6.88;;;;;;;14.00;69.20;100047.72;10434171;28;20083;-72
2022/05/21 19:49:53;;;;;;;16.48;6.50;;;;;;;12.68;69.18;99826.25;10455807;28;20464;-72
2022/05/21 19:54:53;;;;;;;14.55;6.40;;;;;;;12.82;69.31;99860.00;10455113;28;20033;-73
2022/05/21 19:59:54;;;;;;;19.23;6.20;;;;;;;13.62;69.50;100002.75;10454952;28;20110;-73
2022/05/21 20:04:55;;;;;;;14.85;6.85;;;;;;;13.62;70.44;100032.09;10436170;28;20037;-73
2022/05/21 20:09:56;;;;;;;18.92;11.35;;;;;;;13.32;70.64;100001.31;10454629;28;20561;-74
2022/05/21 20:14:57;;;;;;;12.82;6.70;;;;;;;13.30;70.78;100008.66;10454013;28;20041;-72
2022/05/21 20:19:57;;;;;;;13.45;6.70;;;;;;;12.53;71.00;99900.94;10454440;28;20078;-72
2022/05/21 20:24:58;;;;;;;15.02;6.20;;;;;;;13.00;71.46;99990.97;10453767;28;20536;-73
2022/05/21 20:29:59;;;;;;;12.77;5.38;;;;;;;13.12;71.91;100007.28;10454773;28;20062;-73
2022/05/21 20:35:00;;;;;;;9.52;4.60;;;;;;;13.19;71.18;99992.16;10454074;28;20160;-73
2022/05/21 20:40:03;;;;;;;8.25;4.80;;;;;;;11.83;71.72;99799.50;10454220;28;20055;-74
2022/05/21 20:45:22;;;;;;;9.30;4.38;;;;;;;12.13;71.53;99850.00;10453473;28;20041;-73
2022/05/21 20:50:42;;;;;;;11.32;4.60;;;;;;;12.89;72.60;99964.00;10379862;28;20046;-73
2022/05/21 20:56:02;;;;;;;7.47;3.95;;;;;;;12.76;72.69;99964.72;10372561;28;20046;-72
2022/05/21 21:01:21;;;;;;;7.85;4.40;;;;;;;12.52;73.42;99941.94;10401143;28;20058;-73
2022/05/21 21:06:40;;;;;;;8.25;4.10;;;;;;;12.21;73.74;99903.13;10373652;28;20417;-72
2022/05/21 21:11:41;;;;;;;8.45;3.45;;;;;;;11.76;73.95;99835.88;10378478;28;20050;-72
2022/05/21 21:16:42;;;;;;;8.70;4.25;;;;;;;11.47;74.60;99785.41;10378985;28;20060;-72
2022/05/21 21:21:42;;;;;;;9.13;4.18;;;;;;;12.34;74.24;99927.22;10378226;28;20144;-72
2022/05/21 21:26:43;;;;;;;10.40;4.38;;;;;;;12.01;74.79;99886.13;10378803;28;20041;-73
2022/05/21 21:31:44;;;;;;;10.15;4.63;;;;;;;12.04;75.15;99899.06;10377747;28;20117;-72
2022/05/21 21:36:45;;;;;;;9.00;4.38;;;;;;;12.06;75.70;99905.03;10379440;28;20037;-72
2022/05/21 21:41:46;;;;;;;20.92;7.60;;;;;;;11.91;76.01;99901.56;10378708;28;20041;-72
2022/05/21 21:46:47;;;;;;;16.92;7.40;;;;;;;10.63;76.26;99719.34;10402164;28;20087;-72
2022/05/21 21:51:48;;;;;;;19.83;6.10;;;;;;;11.62;76.22;99879.28;10386873;28;20045;-72
2022/05/21 21:56:49;;;;;;;16.33;6.28;;;;;;;9.58;76.49;99564.47;10359720;28;20046;-72
2022/05/21 22:01:50;;;;;;;14.88;6.70;;;;;;;11.52;76.85;99871.59;10377286;28;20037;-72
2022/05/21 22:06:53;;;;;;;18.90;6.30;;;;;;;11.54;78.10;99877.56;10377180;28;20046;-72
2022/05/21 22:11:54;;;;;;;11.07;5.32;;;;;;;11.32;77.52;99839.44;10376677;28;20685;-72
2022/05/21 22:16:55;;;;;;;13.20;5.53;;;;;;;10.24;77.38;99680.56;10376049;28;20391;-73
2022/05/21 22:21:57;;;;;;;13.77;6.13;;;;;;;11.36;77.81;99856.66;10376434;28;20038;-73
2022/05/21 22:26:59;;;;;;;19.75;5.65;;;;;;;10.33;77.97;99682.16;10376855;28;20050;-73
2022/05/21 22:32:02;;;;;;;11.30;5.35;;;;;;;11.10;78.65;99814.63;10375561;28;20042;-72
2022/05/21 22:37:04;;;;;;;9.40;5.32;;;;;;;11.14;78.65;99858.41;10376162;28;20045;-72
2022/05/21 22:42:05;;;;;;;15.23;5.72;;;;;;;10.87;78.27;99819.19;10375507;28;20030;-72
2022/05/21 22:47:06;;;;;;;11.45;5.78;;;;;;;9.88;79.04;99670.63;10375958;28;20042;-73
2022/05/21 22:52:07;;;;;;;12.73;6.15;;;;;;;9.82;79.38;99652.78;10395798;28;20455;-73
2022/05/21 22:57:08;;;;;;;11.52;5.57;;;;;;;10.74;79.59;99823.31;10415405;28;20471;-73
2022/05/21 23:02:09;;;;;;;32.05;10.50;;;;;;;10.78;79.39;99821.13;10415881;28;20129;-72
2022/05/21 23:07:09;;;;;;;37.60;10.70;;;;;;;10.76;79.45;99817.81;10416192;28;20523;-72
2022/05/21 23:12:10;;;;;;;23.00;9.73;;;;;;;10.65;79.55;99815.59;10414911;28;20065;-73
2022/05/21 23:22:30;;;;;;;21.30;6.93;;;;;;;9.68;80.23;99667.66;10415190;28;20041;-73
2022/05/21 23:27:31;;;;;;;13.13;6.30;;;;;;;9.55;80.38;99641.75;10414191;28;20136;-72
2022/05/21 23:32:33;;;;;;;17.63;6.75;;;;;;;10.31;80.32;99760.34;10413873;28;20043;-73
2022/05/21 23:37:34;;;;;;;12.98;6.72;;;;;;;10.50;81.01;99789.03;10414657;28;20103;-72
2022/05/21 23:42:36;;;;;;;15.65;5.95;;;;;;;10.44;81.08;99789.72;10414333;28;20044;-73
2022/05/21 23:47:37;;;;;;;9.45;5.18;;;;;;;10.07;80.66;99770.13;10413637;28;20037;-72
2022/05/21 23:52:38;;;;;;;11.43;5.50;;;;;;;10.26;80.84;99808.59;10413877;28;20037;-73
2022/05/21 23:57:41;;;;;;;12.60;6.05;;;;;;;10.25;81.06;99810.44;10414662;28;20049;-73
